Time;durP1;ratioP1;P1;durP2;ratioP2;P2;SDS_P1;SDS_P2;PMS_P1;PMS_P2;Temp;Humidity;BMP_temperature;BMP_pressure;BME280_temperature;BME280_humidity;BME280_pressure;Samples;Min_cycle;Max_cycle;Signal;HPM_P1;HPM_P2
2023/10/12 00:00:55;;;;;;;5.28;2.97;;;;;;;16.00;100.00;101002.63;5041827;28;20036;-76
2023/10/12 00:03:20;;;;;;;3.83;1.75;;;;;;;15.95;100.00;101009.50;5040125;28;20044;-76
2023/10/12 00:05:46;;;;;;;3.83;1.55;;;;;;;16.00;100.00;100991.34;5024861;28;20030;-76
2023/10/12 00:08:30;;;;;;;1.38;0.70;;;;;;;15.65;100.00;100990.31;5041916;28;20052;-76
2023/10/12 00:10:55;;;;;;;1.58;1.10;;;;;;;15.80;100.00;100971.31;5039127;28;20508;-76
2023/10/12 00:13:27;;;;;;;2.88;1.17;;;;;;;15.94;100.00;100968.41;5045596;28;20020;-77
2023/10/12 00:15:55;;;;;;;3.15;0.70;;;;;;;15.92;100.00;100967.22;5042132;28;20100;-74
2023/10/12 00:18:22;;;;;;;2.83;0.68;;;;;;;15.75;100.00;100981.00;5044462;28;20595;-77
2023/10/12 00:20:53;;;;;;;1.63;1.00;;;;;;;15.70;100.00;100981.41;5042006;28;20025;-77
2023/10/12 00:23:18;;;;;;;2.22;0.40;;;;;;;15.93;100.00;100991.38;5041198;28;20025;-76
2023/10/12 00:25:54;;;;;;;1.00;0.80;;;;;;;16.12;100.00;100996.50;5042867;28;20504;-76
2023/10/12 00:28:21;;;;;;;2.42;0.60;;;;;;;15.86;100.00;101006.34;5031100;28;20568;-77
2023/10/12 00:30:49;;;;;;;3.33;0.70;;;;;;;15.94;100.00;101012.75;5043795;28;20047;-76
2023/10/12 00:33:17;;;;;;;2.70;0.90;;;;;;;15.58;100.00;101001.59;5044850;28;20366;-76
2023/10/12 00:35:48;;;;;;;5.75;1.17;;;;;;;15.53;100.00;101005.66;5041384;28;20122;-77
2023/10/12 00:38:17;;;;;;;2.88;0.80;;;;;;;15.78;100.00;101011.22;5042792;28;20049;-76
2023/10/12 00:40:57;;;;;;;3.90;1.00;;;;;;;15.64;100.00;101017.72;5032003;28;20025;-75
2023/10/12 00:43:39;;;;;;;4.88;1.10;;;;;;;15.48;100.00;101014.56;5045807;28;20013;-76
2023/10/12 00:46:20;;;;;;;6.50;0.93;;;;;;;15.61;100.00;101027.00;5022593;28;20026;-76
2023/10/12 00:48:49;;;;;;;3.70;0.97;;;;;;;15.84;100.00;101026.50;5030939;28;20039;-76
2023/10/12 00:51:16;;;;;;;4.13;1.20;;;;;;;15.83;100.00;101036.22;5035926;28;20560;-74
2023/10/12 00:53:55;;;;;;;2.70;0.98;;;;;;;15.83;100.00;101041.03;5038717;28;20519;-76
2023/10/12 00:56:22;;;;;;;2.58;0.75;;;;;;;15.51;100.00;101029.84;5042384;28;20025;-77
2023/10/12 00:58:50;;;;;;;3.50;1.60;;;;;;;15.78;100.00;101021.72;5045613;28;20032;-76
2023/10/12 01:01:18;;;;;;;3.58;0.80;;;;;;;15.75;100.00;101034.63;5045347;28;20028;-76
2023/10/12 01:03:45;;;;;;;11.93;1.95;;;;;;;15.46;100.00;101045.19;5041110;28;20531;-76
2023/10/12 01:08:42;;;;;;;2.58;0.70;;;;;;;15.41;100.00;101054.03;5042527;28;20448;-76
2023/10/12 01:11:09;;;;;;;4.05;1.08;;;;;;;15.44;100.00;101058.88;5029922;28;20040;-76
2023/10/12 01:13:35;;;;;;;5.25;1.25;;;;;;;15.37;100.00;101064.56;5029738;28;20144;-76
2023/10/12 01:16:22;;;;;;;7.07;1.48;;;;;;;15.55;100.00;101056.84;5036119;28;20037;-75
2023/10/12 01:18:50;;;;;;;2.30;0.90;;;;;;;15.43;100.00;101058.09;5043971;28;20033;-76
2023/10/12 01:21:16;;;;;;;6.35;0.90;;;;;;;15.11;100.00;101057.34;5034098;28;20032;-76
2023/10/12 01:23:41;;;;;;;11.57;2.15;;;;;;;15.35;100.00;101050.06;5031022;28;20497;-76
2023/10/12 01:26:10;;;;;;;4.75;1.10;;;;;;;15.39;100.00;101056.47;5041399;28;20068;-76
2023/10/12 01:28:37;;;;;;;2.97;1.02;;;;;;;15.32;100.00;101062.13;5048314;28;20147;-76
2023/10/12 01:31:05;;;;;;;4.50;1.45;;;;;;;15.39;100.00;101064.94;5039410;28;20110;-76
2023/10/12 01:33:31;;;;;;;8.68;1.25;;;;;;;15.22;100.00;101073.03;5042156;28;20044;-76
2023/10/12 01:35:56;;;;;;;5.43;1.33;;;;;;;15.20;100.00;101072.66;5037436;28;20046;-77
2023/10/12 01:38:22;;;;;;;2.17;0.82;;;;;;;15.31;100.00;101071.81;5040425;28;20067;-77
2023/10/12 01:43:17;;;;;;;5.57;1.15;;;;;;;15.39;100.00;101087.50;5046166;28;20451;-76
2023/10/12 01:45:44;;;;;;;8.60;1.25;;;;;;;15.39;100.00;101090.31;5041402;28;20037;-76
2023/10/12 01:48:16;;;;;;;3.97;1.08;;;;;;;15.37;100.00;101082.28;5047516;28;20020;-76
2023/10/12 01:50:41;;;;;;;7.95;1.25;;;;;;;15.41;100.00;101087.91;5030185;28;20020;-76
2023/10/12 01:53:24;;;;;;;5.65;1.33;;;;;;;15.42;100.00;101086.69;5045858;28;20079;-76
2023/10/12 01:55:56;;;;;;;4.25;1.10;;;;;;;15.40;100.00;101083.47;5045388;28;20115;-77
2023/10/12 01:58:28;;;;;;;3.53;1.17;;;;;;;15.38;100.00;101089.53;5046394;28;20404;-76
2023/10/12 02:01:04;;;;;;;2.47;1.02;;;;;;;15.33;100.00;101089.94;5044217;28;20175;-76
2023/10/12 02:06:13;;;;;;;3.45;1.42;;;;;;;15.32;100.00;101090.34;5040356;28;20055;-76
2023/10/12 02:08:40;;;;;;;5.03;1.33;;;;;;;15.24;100.00;101079.09;5036884;28;20056;-76
2023/10/12 02:11:11;;;;;;;5.35;1.20;;;;;;;15.24;100.00;101083.91;5044068;28;20053;-76
2023/10/12 02:13:37;;;;;;;5.78;1.20;;;;;;;15.21;100.00;101082.69;5034663;28;20028;-76
2023/10/12 02:16:04;;;;;;;2.67;1.30;;;;;;;15.21;100.00;101079.88;5040888;28;20028;-76
2023/10/12 02:18:31;;;;;;;2.50;0.88;;;;;;;15.24;100.00;101089.53;5059803;28;20417;-76
2023/10/12 02:23:32;;;;;;;2.38;0.75;;;;;;;15.19;100.00;101067.41;5030377;28;20029;-76
2023/10/12 02:25:59;;;;;;;3.35;1.20;;;;;;;15.13;100.00;101074.66;5045119;28;20039;-76
2023/10/12 02:28:24;;;;;;;5.22;1.35;;;;;;;15.13;100.00;101078.28;5040102;28;20044;-77
2023/10/12 02:30:53;;;;;;;2.75;1.00;;;;;;;15.20;100.00;101089.56;5033750;28;20037;-76
2023/10/12 02:33:23;;;;;;;4.90;0.93;;;;;;;15.18;100.00;101089.16;5054173;28;20494;-76
2023/10/12 02:35:49;;;;;;;3.22;1.65;;;;;;;15.10;100.00;101087.56;5040564;28;20093;-76
2023/10/12 02:38:15;;;;;;;3.40;1.02;;;;;;;15.11;100.00;101089.16;5041234;28;20033;-76
2023/10/12 02:40:43;;;;;;;7.43;1.70;;;;;;;15.16;100.00;101088.75;5033876;28;20786;-76
2023/10/12 02:43:10;;;;;;;5.40;1.88;;;;;;;15.09;100.00;101093.59;5034178;28;20029;-77
2023/10/12 02:45:40;;;;;;;8.60;1.95;;;;;;;15.18;100.00;101100.44;5040054;28;20577;-76
2023/10/12 02:48:12;;;;;;;5.72;1.35;;;;;;;15.14;100.00;101101.66;5048507;28;20084;-77
2023/10/12 02:50:48;;;;;;;5.63;1.13;;;;;;;15.01;100.00;101095.59;5040402;28;20071;-76
2023/10/12 02:53:13;;;;;;;6.82;1.92;;;;;;;15.14;100.00;101099.63;5034775;28;20853;-76
2023/10/12 02:55:43;;;;;;;6.95;2.30;;;;;;;15.11;100.00;101103.25;5045025;28;20044;-77
2023/10/12 02:58:19;;;;;;;4.28;1.17;;;;;;;15.11;100.00;101108.09;5030573;28;20032;-76
2023/10/12 03:00:54;;;;;;;3.42;1.40;;;;;;;15.06;100.00;101100.06;5042613;28;20037;-73
2023/10/12 03:03:36;;;;;;;4.70;1.38;;;;;;;15.09;100.00;101099.22;5036122;28;20052;-77
2023/10/12 03:06:07;;;;;;;4.50;1.75;;;;;;;15.19;100.00;101098.41;5022109;28;20409;-74
2023/10/12 03:08:34;;;;;;;3.50;1.17;;;;;;;15.11;100.00;101103.25;5037723;28;20110;-73
2023/10/12 03:13:36;;;;;;;3.95;1.10;;;;;;;15.04;100.00;101106.09;5041085;28;20037;-73
2023/10/12 03:16:14;;;;;;;6.90;1.33;;;;;;;15.06;100.00;101106.50;5029885;28;20045;-75
2023/10/12 03:18:42;;;;;;;5.65;1.30;;;;;;;15.06;100.00;101106.50;5022272;28;20473;-74
2023/10/12 03:21:11;;;;;;;4.93;1.27;;;;;;;15.07;100.00;101112.94;5035685;28;20085;-78
2023/10/12 03:23:46;;;;;;;4.03;1.10;;;;;;;15.02;100.00;101105.69;5030258;28;20033;-77
2023/10/12 03:26:20;;;;;;;8.20;1.13;;;;;;;15.00;100.00;101096.81;5034937;28;20814;-78
2023/10/12 03:28:46;;;;;;;5.00;1.52;;;;;;;14.94;100.00;101093.59;5017321;28;20042;-78
2023/10/12 03:31:21;;;;;;;7.00;0.98;;;;;;;14.94;100.00;101096.41;5010707;28;20069;-78
2023/10/12 03:33:53;;;;;;;5.65;1.17;;;;;;;14.83;100.00;101102.03;5020803;28;20040;-78
2023/10/12 03:36:25;;;;;;;8.73;1.70;;;;;;;15.01;100.00;101087.16;5014087;28;20037;-78
2023/10/12 03:44:19;;;;;;;5.40;1.13;;;;;;;14.88;100.00;101114.13;5020789;28;20034;-78
2023/10/12 03:46:56;;;;;;;6.20;1.55;;;;;;;14.89;100.00;101118.56;5015540;28;20124;-78
2023/10/12 03:51:58;;;;;;;5.15;1.30;;;;;;;14.94;100.00;101115.34;5032981;28;20037;-77
2023/10/12 03:54:29;;;;;;;5.53;1.58;;;;;;;14.89;100.00;101112.94;5017070;28;20104;-78
2023/10/12 03:57:19;;;;;;;6.82;1.58;;;;;;;14.84;100.00;101117.75;5023944;28;20030;-78
2023/10/12 04:00:14;;;;;;;5.57;1.52;;;;;;;14.83;100.00;101121.78;5028390;28;20116;-78
2023/10/12 04:02:54;;;;;;;6.65;2.22;;;;;;;14.84;100.00;101122.56;5023843;28;20053;-78
2023/10/12 04:13:09;;;;;;;6.47;1.20;;;;;;;14.94;100.00;101121.78;5019133;28;20609;-78
2023/10/12 04:18:27;;;;;;;7.78;1.23;;;;;;;14.79;100.00;101118.16;5018222;28;20504;-78
2023/10/12 04:20:56;;;;;;;5.70;2.03;;;;;;;14.87;100.00;101121.00;5019999;28;20037;-77
2023/10/12 04:28:56;;;;;;;4.85;1.40;;;;;;;14.88;100.00;101123.38;5020337;28;20049;-77
2023/10/12 04:41:41;;;;;;;4.60;1.30;;;;;;;14.73;100.00;101131.03;5034979;28;20068;-78
2023/10/12 04:44:35;;;;;;;4.32;1.35;;;;;;;14.76;100.00;101138.69;5050536;28;20021;-77
2023/10/12 04:55:29;;;;;;;3.85;2.28;;;;;;;14.56;100.00;101157.16;5046322;28;20076;-78
2023/10/12 04:57:31;;;;;;;8.05;1.85;;;;;;;14.59;100.00;101162.00;5027689;28;20041;-77
2023/10/12 05:03:22;;;;;;;8.27;1.98;;;;;;;14.67;100.00;101168.44;5045828;28;21322;-77
2023/10/12 05:08:43;;;;;;;5.75;1.55;;;;;;;14.64;100.00;101175.69;5000796;28;20055;-79
2023/10/12 05:11:09;;;;;;;8.38;1.50;;;;;;;14.55;100.00;101169.63;5033435;28;20037;-77
2023/10/12 05:13:34;;;;;;;5.65;1.73;;;;;;;14.64;100.00;101164.41;5019155;28;20030;-77
2023/10/12 05:16:05;;;;;;;5.60;1.50;;;;;;;14.68;100.00;101173.69;5031319;28;20033;-77
2023/10/12 05:18:31;;;;;;;4.00;1.35;;;;;;;14.65;100.00;101177.28;5030155;28;20064;-76
2023/10/12 05:20:57;;;;;;;3.80;1.50;;;;;;;14.67;100.00;101177.69;5027688;28;20123;-75
2023/10/12 05:23:22;;;;;;;5.28;1.90;;;;;;;14.64;100.00;101186.97;5030850;28;20045;-75
2023/10/12 05:25:50;;;;;;;2.92;1.20;;;;;;;14.62;100.00;101195.00;5016786;28;20041;-75
2023/10/12 05:28:18;;;;;;;6.90;1.40;;;;;;;14.66;100.00;101207.09;5036900;28;20094;-75
2023/10/12 05:30:50;;;;;;;4.28;1.50;;;;;;;14.63;100.00;101213.50;5035338;28;20572;-75
2023/10/12 05:33:28;;;;;;;6.10;1.35;;;;;;;14.65;100.00;101205.47;5035764;28;20392;-76
2023/10/12 05:35:57;;;;;;;3.85;1.40;;;;;;;14.63;100.00;101196.59;5031429;28;20107;-76
2023/10/12 05:38:34;;;;;;;6.80;1.38;;;;;;;14.61;100.00;101213.13;5016662;28;20033;-76
2023/10/12 05:41:00;;;;;;;5.43;1.20;;;;;;;14.62;100.00;101209.09;5024061;28;20032;-75
2023/10/12 05:43:29;;;;;;;6.70;2.50;;;;;;;14.68;100.00;101203.88;5038048;28;20363;-75
2023/10/12 05:45:54;;;;;;;5.25;1.40;;;;;;;14.64;100.00;101209.50;5019676;28;20037;-75
2023/10/12 05:48:20;;;;;;;3.97;1.23;;;;;;;14.58;100.00;101214.69;5049585;28;20043;-76
2023/10/12 05:50:49;;;;;;;6.55;1.40;;;;;;;14.64;100.00;101220.78;5045320;28;20021;-76
2023/10/12 05:53:16;;;;;;;4.65;1.48;;;;;;;14.67;100.00;101210.72;5043220;28;20480;-75
2023/10/12 05:55:43;;;;;;;5.47;1.30;;;;;;;14.68;100.00;101206.69;5048528;28;20366;-75
2023/10/12 05:58:13;;;;;;;3.13;1.40;;;;;;;14.64;100.00;101209.50;5046078;28;20434;-75
2023/10/12 06:00:44;;;;;;;6.13;1.50;;;;;;;14.61;100.00;101221.56;5040252;28;20039;-75
2023/10/12 06:03:15;;;;;;;6.05;1.20;;;;;;;14.61;100.00;101215.94;5045041;28;20055;-76
2023/10/12 06:05:44;;;;;;;5.75;2.15;;;;;;;14.64;100.00;101230.03;5043137;28;20041;-76
2023/10/12 06:08:10;;;;;;;5.22;1.50;;;;;;;14.55;100.00;101223.13;5041789;28;20544;-75
2023/10/12 06:10:41;;;;;;;3.72;1.10;;;;;;;14.56;100.00;101221.94;5036727;28;20021;-76
2023/10/12 06:13:12;;;;;;;4.03;1.42;;;;;;;14.58;100.00;101223.16;5026693;28;20025;-76
2023/10/12 06:15:42;;;;;;;8.02;1.45;;;;;;;14.66;100.00;101232.44;5035183;28;20478;-76
2023/10/12 06:18:21;;;;;;;6.28;2.15;;;;;;;14.83;100.00;101228.88;5032878;28;20033;-76
2023/10/12 06:20:59;;;;;;;5.85;1.83;;;;;;;14.83;100.00;101226.03;5041944;28;20064;-76
2023/10/12 06:23:25;;;;;;;4.65;1.58;;;;;;;14.82;100.00;101227.25;5027207;28;20562;-76
2023/10/12 06:25:51;;;;;;;6.57;2.55;;;;;;;14.79;100.00;101228.06;5032399;28;20029;-76
2023/10/12 06:28:19;;;;;;;6.45;2.03;;;;;;;14.76;100.00;101242.94;5037919;28;20045;-77
2023/10/12 06:30:45;;;;;;;11.05;2.28;;;;;;;14.54;100.00;101249.66;5024945;28;20035;-75
2023/10/12 06:33:17;;;;;;;5.20;1.58;;;;;;;14.53;100.00;101250.88;5050325;28;20021;-76
2023/10/12 06:35:59;;;;;;;8.35;2.03;;;;;;;14.55;100.00;101242.84;5032139;28;20115;-76
2023/10/12 06:38:39;;;;;;;8.05;1.80;;;;;;;14.55;100.00;101245.66;5046232;28;20075;-75
2023/10/12 06:46:18;;;;;;;5.22;1.58;;;;;;;14.54;100.00;101250.47;5046231;28;20025;-75
2023/10/12 06:48:47;;;;;;;8.07;1.40;;;;;;;14.57;100.00;101265.81;5038795;28;20032;-75
2023/10/12 06:51:16;;;;;;;6.20;1.38;;;;;;;14.56;100.00;101265.00;5053577;28;20028;-78
2023/10/12 06:53:52;;;;;;;6.20;1.83;;;;;;;14.55;100.00;101262.56;5027377;28;20119;-77
2023/10/12 06:59:13;;;;;;;6.35;2.15;;;;;;;14.49;100.00;101270.59;5052695;28;20041;-77
2023/10/12 07:02:24;;;;;;;5.05;1.50;;;;;;;14.50;100.00;101269.38;5038898;28;20468;-77
2023/10/12 07:04:28;;;;;;;5.43;1.42;;;;;;;14.52;100.00;101280.25;5026584;28;20080;-77
2023/10/12 07:06:56;;;;;;;4.30;1.63;;;;;;;14.52;100.00;101280.25;5041214;28;20021;-77
2023/10/12 07:09:39;;;;;;;6.35;2.10;;;;;;;14.50;100.00;101279.84;5047410;28;20037;-78
2023/10/12 07:12:07;;;;;;;8.38;2.28;;;;;;;14.59;100.00;101280.31;5045469;28;20075;-77
2023/10/12 07:14:37;;;;;;;5.88;1.83;;;;;;;14.60;100.00;101291.19;5051416;28;20021;-77
2023/10/12 07:17:04;;;;;;;8.13;2.80;;;;;;;14.55;100.00;101285.09;5041232;28;20498;-78
2023/10/12 07:19:30;;;;;;;6.30;2.10;;;;;;;14.61;100.00;101292.00;5045578;28;20033;-77
2023/10/12 07:21:56;;;;;;;11.32;2.00;;;;;;;14.57;100.00;101294.00;5054937;28;20029;-77
2023/10/12 07:24:26;;;;;;;8.90;2.72;;;;;;;14.64;100.00;101285.56;5055609;28;20036;-77
2023/10/12 07:26:51;;;;;;;6.05;2.10;;;;;;;14.59;100.00;101283.16;5049633;28;20039;-78
2023/10/12 07:29:35;;;;;;;8.93;2.60;;;;;;;14.63;100.00;101281.94;5054263;28;20049;-77
2023/10/12 07:32:08;;;;;;;5.38;3.08;;;;;;;14.59;100.00;101280.31;5047167;28;20036;-78
2023/10/12 07:34:33;;;;;;;12.35;3.05;;;;;;;14.60;100.00;101291.19;5025421;28;20043;-77
2023/10/12 07:36:59;;;;;;;6.72;1.80;;;;;;;14.68;100.00;101297.66;5035408;28;20033;-77
2023/10/12 07:39:38;;;;;;;5.40;2.05;;;;;;;14.70;100.00;101298.06;5027655;28;20091;-77
2023/10/12 07:42:05;;;;;;;8.65;2.58;;;;;;;14.74;100.00;101290.44;5043156;28;20037;-77
2023/10/12 07:44:54;;;;;;;5.15;1.85;;;;;;;14.74;100.00;101304.53;5047955;28;20036;-77
2023/10/12 07:47:25;;;;;;;7.78;2.72;;;;;;;14.73;100.00;101305.72;5037571;28;20050;-78
2023/10/12 07:49:57;;;;;;;7.82;2.45;;;;;;;14.77;100.00;101306.53;5029322;28;20484;-77
2023/10/12 07:52:31;;;;;;;7.80;2.03;;;;;;;14.75;100.00;101313.78;5038525;28;20054;-78
2023/10/12 07:54:58;;;;;;;6.57;2.15;;;;;;;14.77;100.00;101315.00;5044346;28;20338;-78
2023/10/12 07:57:29;;;;;;;5.07;2.05;;;;;;;14.80;100.00;101314.22;5039408;28;20489;-78
2023/10/12 08:21:02;;;;;;;8.57;1.83;;;;;;;14.96;100.00;101305.41;5046510;28;20281;-73
2023/10/12 08:23:28;;;;;;;4.28;1.60;;;;;;;14.92;100.00;101307.41;5050170;28;20020;-73
2023/10/12 08:25:57;;;;;;;3.72;1.80;;;;;;;14.96;100.00;101304.59;5031088;28;20079;-73
2023/10/12 08:28:25;;;;;;;5.55;2.05;;;;;;;14.97;100.00;101317.50;5047942;28;20060;-75
2023/10/12 08:31:00;;;;;;;4.60;1.70;;;;;;;14.96;100.00;101327.16;5041927;28;20120;-73
2023/10/12 08:36:23;;;;;;;3.97;1.63;;;;;;;14.87;100.00;101318.28;5035692;28;20052;-75
2023/10/12 08:38:54;;;;;;;6.65;1.42;;;;;;;14.79;100.00;101321.03;5045539;28;20116;-73
2023/10/12 08:41:21;;;;;;;5.57;1.63;;;;;;;14.84;100.00;101315.03;5031741;28;20025;-74
2023/10/12 08:43:52;;;;;;;7.75;1.90;;;;;;;14.89;100.00;101315.88;5054163;28;20543;-73
2023/10/12 08:52:27;;;;;;;7.25;2.08;;;;;;;14.80;100.00;101314.22;5025158;28;20103;-77
2023/10/12 08:54:53;;;;;;;6.78;1.98;;;;;;;14.88;100.00;101317.84;5036097;28;20127;-77
2023/10/12 08:57:43;;;;;;;;;;;;;;;14.87;100.00;101323.91;5046944;28;20037;-77
2023/10/12 09:00:31;;;;;;;6.80;1.98;;;;;;;14.91;100.00;101316.28;5042643;28;20431;-78
2023/10/12 09:03:06;;;;;;;4.20;1.70;;;;;;;14.69;100.00;101310.53;5050714;28;20027;-77
2023/10/12 09:05:32;;;;;;;7.85;1.48;;;;;;;14.69;100.00;101318.97;5044218;28;20108;-77
2023/10/12 09:13:28;;;;;;;8.68;1.77;;;;;;;14.58;100.00;101309.69;5039663;28;20083;-76
2023/10/12 09:15:55;;;;;;;8.80;1.58;;;;;;;14.66;100.00;101311.34;5044845;28;20040;-76
2023/10/12 09:18:24;;;;;;;6.45;2.13;;;;;;;14.66;100.00;101316.16;5048886;28;20032;-75
2023/10/12 09:23:28;;;;;;;;;;;;;;;14.78;100.00;101316.63;5047272;28;20055;-76
2023/10/12 09:31:14;;;;;;;7.03;2.30;;;;;;;14.76;100.00;101324.66;5041239;28;20033;-76
2023/10/12 09:36:26;;;;;;;5.47;1.40;;;;;;;14.84;100.00;101319.84;5051612;28;20039;-76
2023/10/12 09:38:55;;;;;;;10.60;2.10;;;;;;;14.81;100.00;101327.09;5040291;28;20107;-76
2023/10/12 09:41:27;;;;;;;3.70;1.65;;;;;;;14.94;100.00;101333.19;5030975;28;20027;-76
2023/10/12 09:43:56;;;;;;;7.47;1.67;;;;;;;14.97;100.00;101326.75;5029807;28;20101;-76
2023/10/12 09:46:27;;;;;;;10.05;1.55;;;;;;;14.93;100.00;101319.50;5046069;28;20472;-76
2023/10/12 09:49:02;;;;;;;5.32;1.45;;;;;;;14.92;100.00;101315.06;5034652;28;20452;-76
2023/10/12 09:51:35;;;;;;;10.02;2.55;;;;;;;14.79;100.00;101318.22;5045562;28;20032;-75
2023/10/12 09:54:15;;;;;;;8.77;1.60;;;;;;;14.68;100.00;101313.75;5040800;28;20524;-76
2023/10/12 09:56:52;;;;;;;3.40;1.30;;;;;;;14.58;100.00;101310.47;5048281;28;20389;-76
2023/10/12 09:59:19;;;;;;;4.40;1.50;;;;;;;14.85;100.00;101315.84;5041658;28;20404;-76
2023/10/12 10:07:09;;;;;;;7.10;1.58;;;;;;;14.72;100.00;101318.22;5046430;28;20037;-76
2023/10/12 10:09:37;;;;;;;8.10;2.25;;;;;;;14.72;100.00;101332.28;5037336;28;20105;-75
2023/10/12 10:12:08;;;;;;;7.18;1.63;;;;;;;14.73;100.00;101331.06;5051337;28;20036;-72
2023/10/12 10:14:36;;;;;;;6.47;2.28;;;;;;;14.64;100.00;101328.63;5039589;28;20508;-73
2023/10/12 10:17:02;;;;;;;7.65;1.50;;;;;;;14.71;100.00;101329.88;5048298;28;20036;-76
2023/10/12 10:19:32;;;;;;;5.88;2.00;;;;;;;14.69;100.00;101330.25;5049796;28;20028;-76
2023/10/12 10:22:16;;;;;;;6.75;1.70;;;;;;;14.74;100.00;101335.53;5031630;28;20051;-75
2023/10/12 10:24:45;;;;;;;3.80;1.02;;;;;;;14.79;100.00;101329.50;5053112;28;20045;-75
2023/10/12 10:27:12;;;;;;;6.22;1.60;;;;;;;14.96;100.00;101327.94;5046852;28;20029;-75
2023/10/12 10:29:53;;;;;;;3.38;1.40;;;;;;;14.73;100.00;101328.25;5057250;28;20107;-75
2023/10/12 10:32:29;;;;;;;8.98;2.28;;;;;;;14.68;100.00;101330.66;5056776;28;20041;-75
2023/10/12 10:34:58;;;;;;;7.88;1.55;;;;;;;14.50;100.00;101336.16;5052911;28;20033;-75
2023/10/12 10:37:59;;;;;;;7.45;1.73;;;;;;;14.51;100.00;101335.78;5046494;28;20112;-74
2023/10/12 10:40:48;;;;;;;11.57;1.98;;;;;;;14.77;100.00;101326.25;5037542;28;20481;-75
2023/10/12 10:43:16;;;;;;;12.68;1.67;;;;;;;14.59;100.00;101331.84;5046914;28;20025;-74
2023/10/12 10:45:53;;;;;;;5.82;1.75;;;;;;;14.89;100.00;101338.41;5042825;28;20028;-75
2023/10/12 10:48:19;;;;;;;7.60;1.42;;;;;;;14.69;100.00;101335.09;5053388;28;20044;-75
2023/10/12 10:50:51;;;;;;;11.38;1.92;;;;;;;14.68;100.00;101334.28;5056462;28;20118;-76
2023/10/12 10:53:20;;;;;;;2.58;1.02;;;;;;;14.84;100.00;101337.59;5041696;28;21784;-76
2023/10/12 10:55:50;;;;;;;6.80;1.17;;;;;;;14.56;100.00;101332.59;5050043;28;20038;-75
2023/10/12 10:58:17;;;;;;;3.17;1.77;;;;;;;14.73;100.00;101336.72;5035625;28;20035;-76
2023/10/12 11:00:45;;;;;;;5.18;1.85;;;;;;;14.81;100.00;101341.19;5059111;28;20093;-76
2023/10/12 11:03:20;;;;;;;9.75;1.75;;;;;;;14.59;100.00;101329.03;5057014;28;20147;-75
2023/10/12 11:05:46;;;;;;;10.80;1.55;;;;;;;14.54;100.00;101339.81;5037253;28;20039;-75
2023/10/12 11:08:32;;;;;;;14.50;1.98;;;;;;;14.38;100.00;101332.50;5048170;28;20028;-75
2023/10/12 11:13:38;;;;;;;10.05;1.40;;;;;;;14.53;100.00;101332.56;5041796;28;20481;-76
2023/10/12 11:16:20;;;;;;;3.72;0.93;;;;;;;14.58;100.00;101321.75;5045672;28;20124;-76
2023/10/12 11:18:51;;;;;;;10.20;1.38;;;;;;;14.63;100.00;101314.94;5049319;28;20033;-76
2023/10/12 11:21:17;;;;;;;8.77;1.77;;;;;;;14.73;100.00;101314.16;5049550;28;20048;-76
2023/10/12 11:23:44;;;;;;;7.93;1.77;;;;;;;14.54;100.00;101306.81;5036439;28;20021;-76
2023/10/12 11:26:17;;;;;;;8.23;1.33;;;;;;;14.67;100.00;101293.22;5054826;28;20399;-76
2023/10/12 11:28:46;;;;;;;9.05;2.65;;;;;;;14.74;100.00;101298.91;5035579;28;20444;-76
2023/10/12 11:31:30;;;;;;;4.35;1.27;;;;;;;14.73;100.00;101302.91;5044615;28;20421;-74
2023/10/12 11:33:55;;;;;;;5.75;2.00;;;;;;;14.53;100.00;101305.22;5035847;28;20388;-74
2023/10/12 11:36:23;;;;;;;8.43;3.15;;;;;;;14.49;100.00;101310.00;5046105;28;20033;-73
2023/10/12 11:39:00;;;;;;;7.47;1.70;;;;;;;14.66;100.00;101304.91;5048286;28;20136;-73
2023/10/12 11:41:27;;;;;;;5.15;1.58;;;;;;;14.69;100.00;101299.25;5046825;28;20029;-72
2023/10/12 11:43:53;;;;;;;5.15;2.40;;;;;;;14.63;100.00;101298.84;5050703;28;20021;-73
2023/10/12 11:46:18;;;;;;;8.07;2.00;;;;;;;14.55;100.00;101294.38;5044863;28;20060;-73
2023/10/12 11:48:44;;;;;;;3.85;1.80;;;;;;;14.63;100.00;101292.38;5047142;28;20529;-73
2023/10/12 11:51:11;;;;;;;8.55;1.88;;;;;;;14.74;100.00;101298.91;5029781;28;20121;-73
2023/10/12 11:53:38;;;;;;;8.45;3.00;;;;;;;14.76;100.00;101284.41;5041500;28;20478;-72
2023/10/12 11:56:12;;;;;;;7.60;2.03;;;;;;;14.76;100.00;101281.59;5036459;28;20602;-73
2023/10/12 11:58:38;;;;;;;8.38;2.20;;;;;;;14.65;100.00;101281.53;5026829;28;20033;-73
2023/10/12 12:01:07;;;;;;;3.38;1.52;;;;;;;14.62;100.00;101283.13;5043319;28;20047;-74
2023/10/12 12:03:39;;;;;;;7.35;2.20;;;;;;;14.50;100.00;101274.19;5042754;28;20036;-74
2023/10/12 12:06:21;;;;;;;8.85;2.45;;;;;;;14.59;100.00;101274.69;5032631;28;20033;-72
2023/10/12 12:08:51;;;;;;;11.23;2.88;;;;;;;14.39;100.00;101282.59;5043621;28;20079;-74
2023/10/12 12:11:20;;;;;;;5.93;2.13;;;;;;;14.30;100.00;101271.69;5039647;28;20037;-72
2023/10/12 12:13:52;;;;;;;6.70;1.83;;;;;;;14.25;100.00;101277.69;5045601;28;20037;-73
2023/10/12 12:16:21;;;;;;;7.87;1.90;;;;;;;14.26;100.00;101276.50;5044769;28;20032;-74
2023/10/12 12:18:51;;;;;;;4.57;1.73;;;;;;;14.39;100.00;101272.13;5041209;28;20024;-73
2023/10/12 12:21:18;;;;;;;6.15;1.85;;;;;;;14.19;100.00;101270.84;5049943;28;20653;-72
2023/10/12 12:23:48;;;;;;;2.60;1.50;;;;;;;14.33;100.00;101273.72;5042442;28;20055;-74
2023/10/12 12:26:18;;;;;;;4.72;1.77;;;;;;;14.36;100.00;101267.31;5040547;28;20036;-74
2023/10/12 12:28:44;;;;;;;6.82;1.63;;;;;;;14.34;100.00;101264.06;5030973;28;20045;-74
2023/10/12 12:31:15;;;;;;;3.35;1.65;;;;;;;14.15;100.00;101261.56;5046269;28;20498;-72
2023/10/12 12:33:44;;;;;;;5.10;1.80;;;;;;;14.27;100.00;101258.38;5030853;28;20032;-73
2023/10/12 12:36:21;;;;;;;5.53;2.03;;;;;;;14.44;100.00;101263.31;5051688;28;20033;-73
2023/10/12 12:38:57;;;;;;;5.78;1.77;;;;;;;14.27;100.00;101252.75;5033953;28;20398;-72
2023/10/12 12:41:23;;;;;;;6.53;1.55;;;;;;;14.22;100.00;101255.97;5031622;28;20041;-74
2023/10/12 12:43:50;;;;;;;5.75;1.63;;;;;;;14.35;100.00;101251.59;5045933;28;20543;-74
2023/10/12 12:46:17;;;;;;;6.40;1.50;;;;;;;14.47;100.00;101255.28;5049195;28;20083;-75
2023/10/12 12:48:45;;;;;;;4.55;1.25;;;;;;;14.38;100.00;101255.66;5042293;28;20520;-75
2023/10/12 12:51:17;;;;;;;5.50;1.38;;;;;;;14.12;100.00;101256.69;5039114;28;20551;-75
2023/10/12 12:53:46;;;;;;;7.75;1.42;;;;;;;13.93;100.00;101244.53;5039473;28;20465;-76
2023/10/12 12:56:14;;;;;;;5.45;1.52;;;;;;;14.15;100.00;101248.28;5030440;28;20048;-75
2023/10/12 12:58:46;;;;;;;4.32;1.65;;;;;;;14.21;100.00;101245.91;5038455;28;20025;-76
2023/10/12 13:01:12;;;;;;;3.35;1.60;;;;;;;14.16;100.00;101246.28;5042388;28;20107;-76
2023/10/12 13:03:37;;;;;;;7.13;1.73;;;;;;;14.22;100.00;101245.50;5049099;28;20436;-76
2023/10/12 13:06:09;;;;;;;3.80;1.77;;;;;;;14.26;100.00;101247.53;5037952;28;20115;-76
2023/10/12 13:08:37;;;;;;;2.03;1.42;;;;;;;14.37;100.00;101251.22;5038354;28;20033;-74
2023/10/12 13:11:06;;;;;;;2.55;1.42;;;;;;;14.36;100.00;101246.78;5024348;28;20499;-74
2023/10/12 13:13:35;;;;;;;4.13;1.52;;;;;;;14.46;100.00;101248.03;5040460;28;20421;-73
2023/10/12 13:16:04;;;;;;;6.80;1.90;;;;;;;14.52;100.00;101246.44;5034396;28;20505;-73
2023/10/12 13:18:32;;;;;;;7.85;2.10;;;;;;;14.46;100.00;101248.03;5040863;28;20163;-76
2023/10/12 13:20:59;;;;;;;3.58;1.38;;;;;;;14.51;100.00;101242.03;5033603;28;20029;-76
2023/10/12 13:23:24;;;;;;;5.55;1.73;;;;;;;14.44;100.00;101242.78;5018752;28;20025;-74
2023/10/12 13:25:50;;;;;;;6.07;1.92;;;;;;;14.42;100.00;101239.59;5034002;28;20456;-74
2023/10/12 13:28:16;;;;;;;3.45;1.42;;;;;;;14.44;100.00;101251.22;5039560;28;20076;-76
2023/10/12 13:30:42;;;;;;;4.45;1.50;;;;;;;14.42;100.00;101251.66;5039259;28;20038;-76
2023/10/12 13:33:11;;;;;;;4.22;1.08;;;;;;;14.47;100.00;101241.19;5016736;28;20032;-76
2023/10/12 13:35:45;;;;;;;2.63;1.17;;;;;;;14.30;100.00;101229.47;5033125;28;20025;-74